Time;durP1;ratioP1;P1;durP2;ratioP2;P2;SDS_P1;SDS_P2;PMS_P1;PMS_P2;Temp;Humidity;BMP_temperature;BMP_pressure;BME280_temperature;BME280_humidity;BME280_pressure;Samples;Min_cycle;Max_cycle;Signal;HPM_P1;HPM_P2
2021/12/11 00:01:24;;;;;;;2.20;1.63;;;3.00;99.90;;;;;;5031883;28;20041;-62
2021/12/11 00:04:01;;;;;;;3.22;1.50;;;3.70;99.90;;;;;;5030319;28;20014;-62
2021/12/11 00:06:32;;;;;;;1.55;1.45;;;3.50;99.90;;;;;;5030661;28;20452;-64
2021/12/11 00:09:08;;;;;;;2.28;1.40;;;4.30;99.90;;;;;;5031334;28;20499;-64
2021/12/11 00:11:38;;;;;;;1.65;1.55;;;4.20;99.90;;;;;;5026149;28;20115;-63
2021/12/11 00:14:08;;;;;;;1.98;1.40;;;2.70;99.90;;;;;;5025954;28;20149;-61
2021/12/11 00:16:36;;;;;;;1.92;1.33;;;3.20;99.90;;;;;;5026358;28;20079;-61
2021/12/11 00:19:23;;;;;;;1.85;1.67;;;4.00;99.90;;;;;;5031587;28;20546;-62
2021/12/11 00:21:50;;;;;;;1.27;1.25;;;3.40;99.90;;;;;;5023607;28;20029;-63
2021/12/11 00:24:24;;;;;;;3.80;1.48;;;4.10;99.90;;;;;;5031144;28;20530;-62
2021/12/11 00:26:56;;;;;;;1.40;1.23;;;4.10;99.90;;;;;;5031593;28;20034;-62
2021/12/11 00:29:25;;;;;;;3.38;1.40;;;5.00;99.90;;;;;;5031321;28;20033;-62
2021/12/11 00:32:03;;;;;;;1.63;1.52;;;4.10;99.90;;;;;;5031582;28;20048;-62
2021/12/11 00:34:29;;;;;;;1.55;1.45;;;4.00;99.90;;;;;;5030768;28;20103;-62
2021/12/11 00:37:04;;;;;;;3.08;1.58;;;5.00;99.90;;;;;;5032223;28;20065;-62
2021/12/11 00:39:37;;;;;;;2.25;1.40;;;3.30;99.90;;;;;;5038069;28;20529;-61
2021/12/11 00:42:07;;;;;;;3.17;1.80;;;3.40;99.90;;;;;;5038350;28;20029;-62
2021/12/11 00:44:41;;;;;;;5.60;1.40;;;3.80;99.90;;;;;;5037279;28;20021;-64
2021/12/11 00:47:13;;;;;;;1.30;1.20;;;4.20;99.90;;;;;;5038170;28;20026;-64
2021/12/11 00:50:08;;;;;;;;;;;3.40;99.90;;;;;;5038206;28;20029;-63
2021/12/11 00:52:48;;;;;;;1.83;1.27;;;4.00;99.90;;;;;;5029114;28;20031;-63
2021/12/11 00:55:28;;;;;;;1.98;1.60;;;3.60;99.90;;;;;;5037368;28;20032;-63
2021/12/11 00:58:20;;;;;;;4.75;1.88;;;4.00;99.90;;;;;;5048695;28;20045;-61
2021/12/11 01:00:48;;;;;;;2.10;1.20;;;3.90;99.90;;;;;;5040677;28;20504;-62
2021/12/11 01:03:18;;;;;;;1.15;1.05;;;3.90;99.90;;;;;;5038692;28;20408;-62
2021/12/11 01:05:49;;;;;;;1.80;1.20;;;3.80;99.90;;;;;;5036894;28;20033;-63
2021/12/11 01:08:35;;;;;;;2.28;1.50;;;4.00;99.90;;;;;;5037523;28;20029;-62
2021/12/11 01:11:23;;;;;;;3.80;1.35;;;4.00;99.90;;;;;;5037873;28;20115;-63
2021/12/11 01:14:06;;;;;;;1.30;1.20;;;4.30;99.90;;;;;;5037440;28;20128;-63
2021/12/11 01:16:32;;;;;;;1.08;1.08;;;4.10;99.90;;;;;;5036757;28;20053;-62
2021/12/11 01:18:59;;;;;;;2.72;1.10;;;4.10;99.90;;;;;;5037453;28;20060;-62
2021/12/11 01:22:22;;;;;;;3.75;1.40;;;3.70;99.90;;;;;;5037650;28;20480;-64
2021/12/11 01:24:29;;;;;;;3.45;1.33;;;4.40;99.90;;;;;;5028774;28;20030;-63
2021/12/11 01:27:01;;;;;;;2.53;1.50;;;4.10;99.90;;;;;;5037799;28;20068;-64
2021/12/11 01:29:29;;;;;;;1.30;1.20;;;3.90;99.90;;;;;;5037569;28;20044;-63
2021/12/11 01:31:56;;;;;;;3.15;1.45;;;3.60;99.90;;;;;;5037448;28;20037;-62
2021/12/11 01:34:24;;;;;;;1.73;1.30;;;4.30;99.90;;;;;;5036630;28;20033;-62
2021/12/11 01:36:50;;;;;;;2.95;1.25;;;3.90;99.90;;;;;;5037007;28;20029;-62
2021/12/11 01:39:22;;;;;;;1.88;1.30;;;4.00;99.90;;;;;;5037338;28;20107;-62
2021/12/11 01:41:48;;;;;;;3.65;1.60;;;;;;;;;;5037305;28;20025;-62
2021/12/11 01:44:30;;;;;;;3.08;1.40;;;3.70;99.90;;;;;;5037219;28;20151;-62
2021/12/11 01:47:39;;;;;;;2.08;1.13;;;3.90;99.90;;;;;;5037513;28;20387;-61
2021/12/11 01:50:39;;;;;;;2.97;1.10;;;5.00;99.90;;;;;;5033148;28;20050;-61
2021/12/11 01:53:32;;;;;;;2.13;1.10;;;4.10;99.90;;;;;;5026700;28;20108;-62
2021/12/11 01:56:04;;;;;;;;;;;3.70;99.90;;;;;;5033827;28;20029;-62
2021/12/11 01:58:36;;;;;;;3.67;1.33;;;3.70;99.90;;;;;;5034156;28;20347;-62
2021/12/11 02:01:27;;;;;;;1.50;1.40;;;3.80;99.90;;;;;;5034351;28;20072;-62
2021/12/11 02:03:56;;;;;;;1.20;1.10;;;3.80;99.90;;;;;;5033574;28;20108;-62
2021/12/11 02:06:32;;;;;;;1.52;1.20;;;3.80;99.90;;;;;;5031900;28;20263;-62
2021/12/11 02:08:59;;;;;;;2.83;1.30;;;3.80;99.90;;;;;;5033812;28;20029;-62
2021/12/11 02:11:27;;;;;;;4.03;1.20;;;3.30;99.90;;;;;;5033864;28;20392;-62
2021/12/11 02:14:04;;;;;;;1.65;1.15;;;4.00;99.90;;;;;;5033596;28;20033;-64
2021/12/11 02:16:44;;;;;;;1.30;1.20;;;3.90;99.90;;;;;;5032893;28;20060;-62
2021/12/11 02:19:36;;;;;;;1.20;1.00;;;4.70;99.90;;;;;;5033517;28;20036;-63
2021/12/11 02:22:01;;;;;;;1.33;1.15;;;4.20;99.90;;;;;;5033562;28;20480;-63
2021/12/11 02:24:37;;;;;;;2.40;1.30;;;3.60;99.90;;;;;;5033117;28;20068;-63
2021/12/11 02:27:17;;;;;;;1.40;1.33;;;3.50;99.90;;;;;;5033886;28;20514;-63
2021/12/11 02:29:56;;;;;;;1.27;1.17;;;4.20;99.90;;;;;;5033408;28;20476;-63
2021/12/11 02:32:28;;;;;;;4.47;1.20;;;2.70;99.90;;;;;;5033104;28;20025;-62
2021/12/11 02:35:05;;;;;;;2.38;1.23;;;5.30;99.90;;;;;;5032612;28;20037;-61
2021/12/11 02:37:39;;;;;;;1.40;1.30;;;3.50;99.90;;;;;;5033585;28;20100;-63
2021/12/11 02:40:11;;;;;;;3.55;1.35;;;4.40;99.90;;;;;;5032239;28;20017;-61
2021/12/11 02:42:53;;;;;;;1.48;1.27;;;4.20;99.90;;;;;;5025120;28;20031;-61
2021/12/11 02:45:19;;;;;;;2.03;1.63;;;4.00;99.90;;;;;;5032908;28;20025;-63
2021/12/11 02:47:51;;;;;;;1.05;1.05;;;3.70;99.90;;;;;;5033095;28;20507;-62
2021/12/11 02:50:37;;;;;;;;;;;4.60;99.90;;;;;;5033815;28;20124;-62
2021/12/11 02:53:19;;;;;;;4.68;1.50;;;3.70;99.90;;;;;;5033339;28;19909;-62
2021/12/11 02:55:47;;;;;;;1.70;1.47;;;3.80;99.90;;;;;;5032547;28;20496;-63
2021/12/11 02:58:21;;;;;;;1.85;1.30;;;4.60;99.90;;;;;;5033637;28;20104;-62
2021/12/11 03:01:20;;;;;;;1.58;1.30;;;4.10;99.90;;;;;;5032330;28;20018;-63
2021/12/11 03:03:53;;;;;;;1.30;1.20;;;3.00;99.90;;;;;;5033237;28;20021;-60
2021/12/11 03:06:23;;;;;;;2.67;1.02;;;4.10;99.90;;;;;;5032160;28;20033;-61
2021/12/11 03:08:51;;;;;;;2.67;1.52;;;4.10;99.90;;;;;;5033192;28;20822;-62
2021/12/11 03:11:22;;;;;;;2.05;1.58;;;4.50;99.90;;;;;;5032839;28;20396;-64
2021/12/11 03:13:52;;;;;;;1.80;1.30;;;4.10;99.90;;;;;;5032824;28;20549;-62
2021/12/11 03:16:20;;;;;;;1.88;1.77;;;4.60;99.90;;;;;;5032028;28;20080;-62
2021/12/11 03:18:45;;;;;;;3.45;1.38;;;3.80;99.90;;;;;;5032581;28;20018;-60
2021/12/11 03:21:12;;;;;;;1.25;1.15;;;4.30;99.90;;;;;;5033180;28;20025;-61
2021/12/11 03:23:38;;;;;;;2.70;1.50;;;4.00;99.90;;;;;;5032824;28;20040;-63
2021/12/11 03:26:04;;;;;;;1.95;1.40;;;3.50;99.90;;;;;;5032402;28;20030;-62
2021/12/11 03:28:30;;;;;;;1.58;1.23;;;4.00;99.90;;;;;;5033814;28;20029;-63
2021/12/11 03:30:59;;;;;;;1.20;1.20;;;3.90;99.90;;;;;;5040605;28;20025;-61
2021/12/11 03:33:30;;;;;;;1.83;1.38;;;4.10;99.90;;;;;;5040353;28;20025;-64
2021/12/11 03:35:57;;;;;;;1.90;1.30;;;4.20;99.90;;;;;;5040778;28;20032;-64
2021/12/11 03:38:25;;;;;;;2.78;1.15;;;4.00;99.90;;;;;;5035101;28;20022;-62
2021/12/11 03:40:51;;;;;;;2.17;1.73;;;3.70;99.90;;;;;;5032949;28;20083;-61
2021/12/11 03:43:20;;;;;;;1.92;1.25;;;4.60;99.90;;;;;;5032149;28;20029;-63
2021/12/11 03:45:49;;;;;;;3.42;1.80;;;4.00;99.90;;;;;;5031540;28;20391;-60
2021/12/11 03:48:25;;;;;;;2.10;1.25;;;4.60;99.90;;;;;;5031789;28;20029;-62
2021/12/11 03:50:52;;;;;;;1.20;1.10;;;4.30;99.90;;;;;;5031864;28;20053;-63
2021/12/11 03:53:18;;;;;;;2.88;1.30;;;3.30;99.90;;;;;;5032147;28;20064;-62
2021/12/11 03:55:54;;;;;;;1.35;1.23;;;4.20;99.90;;;;;;5031447;28;20032;-62
2021/12/11 03:58:21;;;;;;;2.05;1.30;;;4.10;99.90;;;;;;5031923;28;20037;-60
2021/12/11 04:01:24;;;;;;;1.00;1.00;;;4.30;99.90;;;;;;5031687;28;20533;-62
2021/12/11 04:03:54;;;;;;;1.40;1.30;;;4.60;99.90;;;;;;4999727;28;20440;-63
2021/12/11 04:06:20;;;;;;;3.17;1.20;;;3.70;99.90;;;;;;5011297;28;20109;-64
2021/12/11 04:08:47;;;;;;;1.23;1.00;;;3.90;99.90;;;;;;5011949;28;20455;-63
2021/12/11 04:11:17;;;;;;;2.60;1.00;;;4.40;99.90;;;;;;5012122;28;20408;-63
2021/12/11 04:13:45;;;;;;;2.42;1.10;;;3.30;99.90;;;;;;5011275;28;20041;-60
2021/12/11 04:16:11;;;;;;;1.50;1.23;;;3.90;99.90;;;;;;5011298;28;20091;-62
2021/12/11 04:18:37;;;;;;;1.85;1.23;;;3.80;99.90;;;;;;5011423;28;20028;-62
2021/12/11 04:21:04;;;;;;;1.20;1.10;;;3.70;99.90;;;;;;5012016;28;20032;-63
2021/12/11 04:23:30;;;;;;;1.48;1.38;;;4.40;99.90;;;;;;5011785;28;20098;-63
2021/12/11 04:25:57;;;;;;;1.30;1.20;;;4.00;99.90;;;;;;5011190;28;20041;-62
2021/12/11 04:28:24;;;;;;;2.88;1.17;;;3.60;99.90;;;;;;5011579;28;20396;-62
2021/12/11 04:30:55;;;;;;;1.00;1.00;;;3.30;99.90;;;;;;5011778;28;20022;-63
2021/12/11 04:33:20;;;;;;;2.03;1.17;;;3.50;99.90;;;;;;5022861;28;20028;-61
2021/12/11 04:35:48;;;;;;;1.30;1.25;;;3.50;99.90;;;;;;5030907;28;20488;-59
2021/12/11 04:38:15;;;;;;;1.20;1.20;;;3.20;99.90;;;;;;5031582;28;20025;-59
2021/12/11 04:40:46;;;;;;;1.40;1.02;;;3.10;99.90;;;;;;5031544;28;20029;-59
2021/12/11 04:43:16;;;;;;;1.55;1.27;;;3.30;99.90;;;;;;5031899;28;20385;-62
2021/12/11 04:45:51;;;;;;;1.63;1.30;;;;;;;;;;5030846;28;20033;-64
2021/12/11 04:51:39;;;;;;;;;;;3.60;99.90;;;;;;5031866;28;20542;-64
2021/12/11 04:54:25;;;;;;;2.88;1.30;;;3.00;99.90;;;;;;5027749;28;20287;-62
2021/12/11 05:07:55;;;;;;;1.30;1.20;;;2.90;99.90;;;;;;5023039;28;20026;-62
2021/12/11 05:10:34;;;;;;;1.45;1.45;;;4.00;99.90;;;;;;5031154;28;20502;-61
2021/12/11 05:13:01;;;;;;;1.60;1.50;;;2.20;99.90;;;;;;5028628;28;20037;-63
2021/12/11 05:15:31;;;;;;;1.65;1.55;;;3.40;99.90;;;;;;5024817;28;20030;-63
2021/12/11 05:17:59;;;;;;;2.80;1.70;;;3.10;99.90;;;;;;5020854;28;20392;-72
2021/12/11 05:20:29;;;;;;;1.52;1.45;;;3.60;99.90;;;;;;5029594;28;20029;-68
2021/12/11 05:22:55;;;;;;;1.98;1.70;;;3.10;99.90;;;;;;5031111;28;20399;-68
2021/12/11 05:25:21;;;;;;;1.55;1.45;;;3.70;99.90;;;;;;5016624;28;20391;-68
2021/12/11 05:27:47;;;;;;;2.15;1.95;;;3.00;99.90;;;;;;5015315;28;20105;-68
2021/12/11 05:30:27;;;;;;;1.63;1.52;;;3.20;99.90;;;;;;5024035;28;20029;-68
2021/12/11 05:32:56;;;;;;;1.73;1.63;;;3.50;99.90;;;;;;5034421;28;20487;-68
2021/12/11 05:35:22;;;;;;;1.90;1.80;;;3.90;99.90;;;;;;5033758;28;20037;-67
2021/12/11 05:37:48;;;;;;;2.00;1.90;;;3.60;99.90;;;;;;5034806;28;20039;-68
2021/12/11 05:40:18;;;;;;;2.67;1.80;;;3.20;99.90;;;;;;5034560;28;20092;-68
2021/12/11 05:42:45;;;;;;;1.80;1.70;;;2.90;99.90;;;;;;5034853;28;20433;-68
2021/12/11 05:45:10;;;;;;;1.90;1.80;;;3.30;99.90;;;;;;5033920;28;20025;-67
2021/12/11 05:47:37;;;;;;;2.15;2.05;;;3.20;99.90;;;;;;5034123;28;20087;-68
2021/12/11 05:50:06;;;;;;;1.85;1.75;;;3.20;99.90;;;;;;5033824;28;20021;-67
2021/12/11 05:52:31;;;;;;;2.83;2.50;;;3.50;99.90;;;;;;5033203;28;20091;-68
2021/12/11 05:54:57;;;;;;;3.08;2.50;;;3.50;99.90;;;;;;5033594;28;20029;-67
2021/12/11 05:57:25;;;;;;;2.78;2.58;;;2.90;99.90;;;;;;5034643;28;20029;-68
2021/12/11 05:59:52;;;;;;;3.35;2.80;;;3.40;99.90;;;;;;5033989;28;20018;-68
2021/12/11 06:02:27;;;;;;;3.00;2.60;;;3.20;99.90;;;;;;5032771;28;20063;-68
2021/12/11 06:04:56;;;;;;;2.50;2.40;;;3.40;99.90;;;;;;5030288;28;20079;-68
2021/12/11 06:07:26;;;;;;;2.55;2.38;;;4.10;99.90;;;;;;5028117;28;20018;-68
2021/12/11 06:09:57;;;;;;;2.80;2.60;;;3.80;99.90;;;;;;5025331;28;20033;-69
2021/12/11 06:12:24;;;;;;;3.70;3.40;;;3.30;99.90;;;;;;5035212;28;20030;-68
2021/12/11 06:14:51;;;;;;;3.33;3.13;;;3.90;99.90;;;;;;5017891;28;20033;-69
2021/12/11 06:17:22;;;;;;;4.18;3.30;;;3.90;99.90;;;;;;5019439;28;20692;-68
2021/12/11 06:19:52;;;;;;;3.33;3.03;;;3.10;99.90;;;;;;5018145;28;20050;-69
2021/12/11 06:22:20;;;;;;;3.72;3.53;;;3.00;99.90;;;;;;5014737;28;20068;-68
2021/12/11 06:24:46;;;;;;;3.85;3.63;;;3.40;99.90;;;;;;5013518;28;20042;-68
2021/12/11 06:27:12;;;;;;;3.92;3.63;;;3.80;99.90;;;;;;5014028;28;20524;-69
2021/12/11 06:29:38;;;;;;;3.95;3.50;;;3.00;99.90;;;;;;5013678;28;20044;-68
2021/12/11 06:32:04;;;;;;;3.30;3.00;;;3.30;99.90;;;;;;5014882;28;20025;-69
2021/12/11 06:34:33;;;;;;;3.40;3.20;;;3.50;99.90;;;;;;5031608;28;20738;-67
2021/12/11 06:36:59;;;;;;;3.83;3.53;;;3.40;99.90;;;;;;5033231;28;20128;-68
2021/12/11 06:39:25;;;;;;;4.03;3.72;;;3.40;99.90;;;;;;5033110;28;20051;-68
2021/12/11 06:41:56;;;;;;;3.90;3.40;;;3.60;99.90;;;;;;5033354;28;20100;-68
2021/12/11 06:44:27;;;;;;;3.42;3.22;;;3.80;99.90;;;;;;5032612;28;20024;-68
2021/12/11 06:46:54;;;;;;;3.63;3.43;;;3.70;99.90;;;;;;5033514;28;20029;-68
2021/12/11 06:49:21;;;;;;;4.50;4.10;;;3.20;99.90;;;;;;5032967;28;20480;-68
2021/12/11 06:51:47;;;;;;;4.53;4.13;;;2.70;99.90;;;;;;5032993;28;20067;-69
2021/12/11 06:54:13;;;;;;;4.65;4.25;;;3.60;99.90;;;;;;5033249;28;20064;-69
2021/12/11 06:56:41;;;;;;;4.57;4.18;;;4.00;99.90;;;;;;5032764;28;20116;-68
2021/12/11 06:59:08;;;;;;;5.10;4.60;;;3.20;99.90;;;;;;5032767;28;20053;-71
2021/12/11 07:01:35;;;;;;;4.82;4.43;;;3.10;99.90;;;;;;5032840;28;20072;-71
2021/12/11 07:04:02;;;;;;;4.80;4.47;;;3.00;99.90;;;;;;5027167;28;20021;-71
2021/12/11 07:06:29;;;;;;;5.40;4.90;;;3.70;99.90;;;;;;5019916;28;20025;-73
2021/12/11 07:08:55;;;;;;;8.02;5.47;;;3.60;99.90;;;;;;5022415;28;20079;-72
2021/12/11 07:11:22;;;;;;;6.22;5.65;;;4.20;99.90;;;;;;5022843;28;20050;-73
2021/12/11 07:13:48;;;;;;;6.95;5.93;;;2.90;99.90;;;;;;5022852;28;20041;-73
2021/12/11 07:16:14;;;;;;;5.68;5.18;;;2.80;99.90;;;;;;5021168;28;20365;-73
2021/12/11 07:18:40;;;;;;;6.05;5.55;;;3.40;99.90;;;;;;5021674;28;20480;-73
2021/12/11 07:21:08;;;;;;;6.40;5.80;;;;;;;;;;5023216;28;20032;-74
2021/12/11 07:23:35;;;;;;;6.90;6.20;;;2.80;99.90;;;;;;5020868;28;20101;-73
2021/12/11 07:26:12;;;;;;;6.60;5.90;;;2.80;99.90;;;;;;5020917;28;20533;-74
2021/12/11 07:28:42;;;;;;;8.15;5.72;;;3.60;99.90;;;;;;5015013;28;20050;-67
2021/12/11 07:31:08;;;;;;;6.85;6.25;;;3.60;99.90;;;;;;5013091;28;20038;-67
2021/12/11 07:33:34;;;;;;;30.25;26.48;;;3.00;99.90;;;;;;5025767;28;20068;-67
2021/12/11 07:36:00;;;;;;;12.68;11.38;;;3.30;99.90;;;;;;5031697;28;20044;-66
2021/12/11 07:38:26;;;;;;;6.80;6.18;;;3.30;99.90;;;;;;5043331;28;20494;-66
2021/12/11 07:40:55;;;;;;;8.57;7.68;;;3.00;99.90;;;;;;5046484;28;20025;-67
2021/12/11 07:43:24;;;;;;;8.35;6.82;;;3.20;99.90;;;;;;5036443;28;20108;-67
2021/12/11 07:45:50;;;;;;;7.72;6.93;;;3.00;99.90;;;;;;5032463;28;20021;-67
2021/12/11 07:48:17;;;;;;;10.18;7.20;;;2.80;99.90;;;;;;5031602;28;20369;-65
2021/12/11 07:50:44;;;;;;;9.93;8.93;;;3.00;99.90;;;;;;5030847;28;20037;-65
2021/12/11 07:53:10;;;;;;;8.40;7.50;;;3.40;99.90;;;;;;5031880;28;20476;-70
2021/12/11 07:55:36;;;;;;;7.25;6.60;;;3.30;99.90;;;;;;5031509;28;20037;-71
2021/12/11 07:58:07;;;;;;;22.20;14.35;;;3.20;99.90;;;;;;5032095;28;20018;-68
2021/12/11 08:00:35;;;;;;;9.80;7.85;;;3.60;99.90;;;;;;5031789;28;20017;-69
2021/12/11 08:03:03;;;;;;;10.48;8.20;;;3.20;99.90;;;;;;5031608;28;20388;-69
2021/12/11 08:05:29;;;;;;;9.00;8.10;;;3.40;99.90;;;;;;5030786;28;20017;-69
2021/12/11 08:08:00;;;;;;;8.57;7.78;;;3.10;99.90;;;;;;5030676;28;20108;-69
2021/12/11 08:10:27;;;;;;;9.43;8.23;;;3.50;99.90;;;;;;5031527;28;20431;-69
2021/12/11 08:12:53;;;;;;;8.27;7.35;;;3.00;99.90;;;;;;5030565;28;20021;-68
2021/12/11 08:15:19;;;;;;;11.07;8.00;;;3.20;99.90;;;;;;5030674;28;20034;-69
2021/12/11 08:17:52;;;;;;;15.30;9.00;;;3.40;99.90;;;;;;5032162;28;20089;-70
2021/12/11 08:20:18;;;;;;;9.90;8.27;;;3.50;99.90;;;;;;5031366;28;20486;-69
2021/12/11 08:22:44;;;;;;;8.77;7.97;;;3.00;99.90;;;;;;5031822;28;20140;-69
2021/12/11 08:25:10;;;;;;;10.68;8.63;;;3.40;99.90;;;;;;5031138;28;20017;-69
2021/12/11 08:27:36;;;;;;;8.48;7.68;;;3.40;99.90;;;;;;5031784;28;20022;-69
2021/12/11 08:30:04;;;;;;;8.88;7.97;;;3.10;99.90;;;;;;5031038;28;20459;-69
2021/12/11 08:32:29;;;;;;;8.65;7.85;;;2.90;99.90;;;;;;5029679;28;20020;-70
2021/12/11 08:34:56;;;;;;;9.48;8.50;;;3.80;99.90;;;;;;5028408;28;20013;-70
2021/12/11 08:37:22;;;;;;;10.63;8.82;;;3.90;99.90;;;;;;5025172;28;20017;-71
2021/12/11 08:39:49;;;;;;;11.73;9.15;;;3.60;99.90;;;;;;5031160;28;20384;-71
2021/12/11 08:42:20;;;;;;;11.45;8.93;;;3.40;99.90;;;;;;5031194;28;20570;-71
2021/12/11 08:44:52;;;;;;;9.27;8.32;;;3.70;99.90;;;;;;5029627;28;20537;-70
2021/12/11 08:47:21;;;;;;;10.02;8.10;;;3.60;99.90;;;;;;5031483;28;20029;-70
2021/12/11 08:49:48;;;;;;;9.45;7.97;;;3.80;99.90;;;;;;5030971;28;20025;-71
2021/12/11 08:52:19;;;;;;;8.82;7.93;;;3.30;99.90;;;;;;5031156;28;20030;-71
2021/12/11 08:54:46;;;;;;;9.52;7.63;;;3.30;99.90;;;;;;5030730;28;20053;-70
2021/12/11 08:57:15;;;;;;;7.97;7.18;;;3.10;99.90;;;;;;5031018;28;20511;-70
2021/12/11 08:59:46;;;;;;;8.20;6.97;;;3.80;99.90;;;;;;5034300;28;20053;-71
2021/12/11 09:02:24;;;;;;;6.85;6.10;;;3.10;99.90;;;;;;5035012;28;20063;-70
2021/12/11 09:04:55;;;;;;;6.28;5.68;;;3.00;99.90;;;;;;5034835;28;20151;-77
2021/12/11 09:08:02;;;;;;;6.25;5.65;;;3.50;99.90;;;;;;5035658;28;20071;-70
2021/12/11 09:10:31;;;;;;;6.95;5.60;;;3.10;99.90;;;;;;5035337;28;20029;-70
2021/12/11 09:13:10;;;;;;;5.97;5.32;;;3.30;99.90;;;;;;5034977;28;20108;-70
2021/12/11 09:15:51;;;;;;;5.22;4.70;;;3.50;99.90;;;;;;5034570;28;20026;-71
2021/12/11 09:18:24;;;;;;;6.30;5.00;;;3.20;99.90;;;;;;5035104;28;20025;-71
2021/12/11 09:21:07;;;;;;;5.20;4.70;;;3.00;99.90;;;;;;5034811;28;20021;-71
2021/12/11 09:23:42;;;;;;;7.00;5.00;;;3.70;99.90;;;;;;5034818;28;20532;-68
2021/12/11 09:26:23;;;;;;;6.05;5.40;;;3.40;99.90;;;;;;5034046;28;20029;-69
2021/12/11 09:28:59;;;;;;;5.25;4.75;;;3.30;99.90;;;;;;5035349;28;20036;-67
2021/12/11 09:31:39;;;;;;;6.13;5.07;;;3.60;99.90;;;;;;5036364;28;20030;-69
2021/12/11 09:34:28;;;;;;;6.00;5.20;;;3.30;99.90;;;;;;5035580;28;20112;-72
2021/12/11 09:36:57;;;;;;;11.25;10.15;;;3.90;99.90;;;;;;5036289;28;20104;-68
2021/12/11 09:39:38;;;;;;;7.82;5.60;;;3.60;99.90;;;;;;5035957;28;20025;-69
2021/12/11 09:42:03;;;;;;;6.45;5.68;;;4.50;99.90;;;;;;5034971;28;20528;-69
2021/12/11 09:44:37;;;;;;;6.53;5.93;;;3.40;99.90;;;;;;5033926;28;20113;-68
2021/12/11 09:47:14;;;;;;;6.68;6.03;;;3.40;99.90;;;;;;5034710;28;20380;-68
2021/12/11 09:49:44;;;;;;;5.90;5.30;;;3.50;99.90;;;;;;5034089;28;20048;-69
2021/12/11 09:52:19;;;;;;;5.60;4.88;;;4.10;99.90;;;;;;5034629;28;20036;-69
2021/12/11 09:54:52;;;;;;;6.63;5.10;;;3.90;99.90;;;;;;5033446;28;20033;-69
2021/12/11 09:57:20;;;;;;;6.05;5.38;;;4.10;99.90;;;;;;5034369;28;20108;-71
2021/12/11 09:59:49;;;;;;;18.88;11.63;;;3.50;99.90;;;;;;5034252;28;20049;-69
2021/12/11 10:02:24;;;;;;;11.43;8.70;;;4.50;99.90;;;;;;5034299;28;20026;-68
2021/12/11 10:05:00;;;;;;;10.30;8.38;;;4.40;99.90;;;;;;5029598;28;20033;-69
2021/12/11 10:07:33;;;;;;;7.38;5.28;;;4.70;99.90;;;;;;5023808;28;20045;-69
2021/12/11 10:10:14;;;;;;;4.35;3.95;;;4.60;99.90;;;;;;5023532;28;20022;-69
2021/12/11 10:12:46;;;;;;;5.25;4.75;;;4.00;99.90;;;;;;5024882;28;20059;-69
2021/12/11 10:15:15;;;;;;;5.35;4.85;;;4.40;99.90;;;;;;5044610;28;20033;-69
2021/12/11 10:17:48;;;;;;;5.45;4.95;;;3.90;99.90;;;;;;5022353;28;20083;-69
2021/12/11 10:20:36;;;;;;;6.18;5.50;;;4.80;99.90;;;;;;5021178;28;20022;-69
2021/12/11 10:23:05;;;;;;;5.63;5.13;;;5.10;99.90;;;;;;5022445;28;20417;-70
2021/12/11 10:25:34;;;;;;;8.85;7.30;;;5.60;99.90;;;;;;5022057;28;20078;-70
2021/12/11 10:28:03;;;;;;;5.35;4.88;;;6.70;99.90;;;;;;5026430;28;20190;-69
2021/12/11 10:30:36;;;;;;;6.55;4.78;;;6.80;99.90;;;;;;5027160;28;20055;-69
2021/12/11 10:33:04;;;;;;;4.95;4.45;;;7.80;99.90;;;;;;5028268;28;20802;-69
2021/12/11 10:35:35;;;;;;;3.90;3.60;;;8.80;99.90;;;;;;5024899;28;20052;-68
2021/12/11 10:38:03;;;;;;;5.43;4.93;;;8.60;99.90;;;;;;5026292;28;20049;-68
2021/12/11 10:40:36;;;;;;;6.20;4.25;;;8.40;99.90;;;;;;5026308;28;20104;-69
2021/12/11 10:43:10;;;;;;;5.00;4.60;;;8.50;99.90;;;;;;5027577;28;20430;-69
2021/12/11 10:45:36;;;;;;;4.70;4.30;;;8.90;99.90;;;;;;5033656;28;20029;-69
2021/12/11 10:48:07;;;;;;;5.28;4.78;;;8.60;99.90;;;;;;5033547;28;20144;-69
2021/12/11 10:51:00;;;;;;;6.63;5.50;;;8.20;99.90;;;;;;5033341;28;20032;-69
2021/12/11 10:53:27;;;;;;;5.80;5.00;;;6.60;99.90;;;;;;5032571;28;20047;-69
2021/12/11 10:55:55;;;;;;;7.10;6.28;;;6.40;99.90;;;;;;5032318;28;20033;-69
2021/12/11 10:58:26;;;;;;;7.78;6.90;;;6.00;99.90;;;;;;5033284;28;20481;-69
2021/12/11 11:00:56;;;;;;;7.88;6.70;;;6.10;99.90;;;;;;5032989;28;20057;-71
2021/12/11 11:03:23;;;;;;;7.00;6.30;;;5.60;99.90;;;;;;5033114;28;20060;-71
2021/12/11 11:05:50;;;;;;;6.53;5.93;;;5.90;99.90;;;;;;5032205;28;20038;-70
2021/12/11 11:08:15;;;;;;;6.90;6.20;;;5.60;99.90;;;;;;5032930;28;20033;-71
2021/12/11 11:10:50;;;;;;;8.50;6.75;;;5.70;99.90;;;;;;5032987;28;20041;-70
2021/12/11 11:13:19;;;;;;;7.50;6.70;;;5.60;99.90;;;;;;5032879;28;20079;-70
2021/12/11 11:15:45;;;;;;;7.47;6.43;;;5.70;99.90;;;;;;5032343;28;20801;-71
2021/12/11 11:18:15;;;;;;;7.00;6.22;;;5.90;99.90;;;;;;5032509;28;20025;-70
2021/12/11 11:21:04;;;;;;;6.97;6.28;;;6.10;99.90;;;;;;5032455;28;20017;-71
2021/12/11 11:23:30;;;;;;;9.48;6.35;;;5.50;99.90;;;;;;5020674;28;20037;-70
2021/12/11 11:25:59;;;;;;;7.88;6.75;;;7.10;99.90;;;;;;5031576;28;20375;-71
2021/12/11 11:28:30;;;;;;;6.07;5.18;;;6.10;99.90;;;;;;5032569;28;20033;-70
2021/12/11 11:31:24;;;;;;;7.22;5.43;;;5.70;99.90;;;;;;5032734;28;20036;-70
2021/12/11 11:33:50;;;;;;;9.52;5.80;;;5.90;99.90;;;;;;5028085;28;20043;-70
2021/12/11 11:36:20;;;;;;;7.75;6.15;;;5.80;99.90;;;;;;5011922;28;20026;-70
2021/12/11 11:38:50;;;;;;;7.85;6.15;;;5.90;99.90;;;;;;5012636;28;20024;-70
2021/12/11 11:41:27;;;;;;;6.50;5.70;;;7.10;99.90;;;;;;5013046;28;20028;-70
2021/12/11 11:43:53;;;;;;;5.03;4.53;;;6.80;99.90;;;;;;5012446;28;20048;-71
2021/12/11 11:46:19;;;;;;;5.85;5.35;;;7.00;99.90;;;;;;5011951;28;20038;-71
2021/12/11 11:48:49;;;;;;;8.27;5.70;;;5.50;99.90;;;;;;5012251;28;20030;-70
2021/12/11 11:51:43;;;;;;;10.38;6.38;;;5.80;99.90;;;;;;5012235;28;20113;-70
2021/12/11 11:54:10;;;;;;;5.95;5.45;;;5.80;99.90;;;;;;5006287;28;20404;-70
2021/12/11 11:56:41;;;;;;;11.77;6.95;;;5.70;99.90;;;;;;5011625;28;20022;-70
2021/12/11 11:59:08;;;;;;;11.80;7.75;;;5.30;99.90;;;;;;5012340;28;20081;-70
2021/12/11 12:01:41;;;;;;;7.53;6.43;;;5.30;99.90;;;;;;5012233;28;20022;-69
2021/12/11 12:04:11;;;;;;;7.47;6.32;;;5.40;99.90;;;;;;5030224;28;20100;-74
2021/12/11 12:06:39;;;;;;;7.22;6.50;;;5.80;99.90;;;;;;5030945;28;20021;-75
2021/12/11 12:09:06;;;;;;;8.05;7.20;;;;;;;;;;5012008;28;20032;-71
2021/12/11 12:11:33;;;;;;;6.47;5.53;;;5.50;99.90;;;;;;5011960;28;20030;-71
2021/12/11 12:14:02;;;;;;;5.65;5.15;;;5.40;99.90;;;;;;5028665;28;20049;-74
2021/12/11 12:16:31;;;;;;;5.30;4.80;;;5.50;99.90;;;;;;5026748;28;20028;-74
2021/12/11 12:18:57;;;;;;;7.22;5.57;;;5.80;99.90;;;;;;5021106;28;20010;-74
2021/12/11 12:21:23;;;;;;;5.63;4.72;;;5.60;99.90;;;;;;5019106;28;20485;-75
2021/12/11 12:23:49;;;;;;;5.80;4.80;;;6.20;99.90;;;;;;5021263;28;20045;-74
2021/12/11 12:26:18;;;;;;;5.40;4.80;;;5.30;99.90;;;;;;5020132;28;20087;-73
2021/12/11 12:28:45;;;;;;;5.93;5.03;;;5.30;99.90;;;;;;5019583;28;20029;-74
2021/12/11 12:31:19;;;;;;;9.07;5.85;;;5.50;99.90;;;;;;5021069;28;20030;-73
2021/12/11 12:33:45;;;;;;;5.68;5.13;;;5.40;99.90;;;;;;5021762;28;20021;-73
2021/12/11 12:36:12;;;;;;;5.63;5.13;;;5.80;99.90;;;;;;5018851;28;20480;-73
2021/12/11 12:38:40;;;;;;;6.38;5.50;;;5.40;99.90;;;;;;5019880;28;20014;-73
2021/12/11 12:41:12;;;;;;;5.60;4.85;;;5.40;99.90;;;;;;5021680;28;20025;-72
2021/12/11 12:46:16;;;;;;;5.82;5.22;;;5.20;99.90;;;;;;5019693;28;20061;-73
2021/12/11 12:48:42;;;;;;;6.70;5.68;;;4.90;99.90;;;;;;5019457;28;20037;-72
2021/12/11 12:51:10;;;;;;;6.43;5.78;;;4.80;99.90;;;;;;5019559;28;20435;-73
2021/12/11 12:53:38;;;;;;;5.90;5.30;;;5.20;99.90;;;;;;5020133;28;20049;-73
2021/12/11 12:56:35;;;;;;;6.55;5.93;;;5.30;99.90;;;;;;5020533;28;20028;-73
2021/12/11 12:59:35;;;;;;;6.25;5.65;;;4.50;99.90;;;;;;5016655;28;20782;-73
2021/12/11 13:02:06;;;;;;;6.53;5.82;;;4.40;99.90;;;;;;5013301;28;20440;-73
2021/12/11 13:04:36;;;;;;;7.13;6.17;;;4.20;99.90;;;;;;5019204;28;20014;-73
2021/12/11 13:07:06;;;;;;;7.40;6.30;;;4.80;99.90;;;;;;5019083;28;20041;-73
2021/12/11 13:09:42;;;;;;;7.53;6.72;;;5.00;99.90;;;;;;5020259;28;20383;-73
2021/12/11 13:12:20;;;;;;;8.50;7.30;;;5.00;99.90;;;;;;5018326;28;20034;-73
2021/12/11 13:14:47;;;;;;;8.57;6.82;;;5.20;99.90;;;;;;5019921;28;20048;-75
2021/12/11 13:17:24;;;;;;;7.93;6.78;;;5.00;99.90;;;;;;5020053;28;20037;-74
2021/12/11 13:19:55;;;;;;;7.35;6.55;;;5.20;99.90;;;;;;5019450;28;20113;-74
2021/12/11 13:22:28;;;;;;;8.30;6.45;;;5.20;99.90;;;;;;5019295;28;20037;-75
2021/12/11 13:24:58;;;;;;;7.20;6.10;;;5.00;99.90;;;;;;5019473;28;20022;-75
2021/12/11 13:27:28;;;;;;;7.93;6.13;;;5.20;99.90;;;;;;5019174;28;20022;-75
2021/12/11 13:29:57;;;;;;;7.40;5.78;;;5.20;99.90;;;;;;5020232;28;20022;-76
2021/12/11 13:32:29;;;;;;;7.15;6.45;;;5.10;99.90;;;;;;5021986;28;20026;-75
2021/12/11 13:34:58;;;;;;;8.60;7.70;;;4.80;99.90;;;;;;5019017;28;20025;-76
2021/12/11 13:37:28;;;;;;;8.52;7.38;;;5.00;99.90;;;;;;5018684;28;20017;-76